createdAt,value
2023-04-16T00:01:32.010Z,37.47
2023-04-16T00:03:59.948Z,41.87
2023-04-16T00:06:28.753Z,40.10
2023-04-16T00:08:56.579Z,41.92
2023-04-16T00:11:24.565Z,38.72
2023-04-16T00:13:52.421Z,34.47
2023-04-16T00:16:20.189Z,41.28
2023-04-16T00:18:47.947Z,44.00
2023-04-16T00:21:15.708Z,44.77
2023-04-16T00:23:43.404Z,34.33
2023-04-16T00:26:11.306Z,29.48
2023-04-16T00:28:39.096Z,38.33
2023-04-16T00:31:06.833Z,44.00
2023-04-16T00:33:34.538Z,46.33
2023-04-16T00:36:02.287Z,45.55
2023-04-16T00:38:30.567Z,42.80
2023-04-16T00:40:59.011Z,42.65
2023-04-16T00:43:27.089Z,51.15
2023-04-16T00:45:56.256Z,38.63
2023-04-16T00:48:24.183Z,33.65
2023-04-16T00:50:51.794Z,41.95
2023-04-16T00:53:20.066Z,34.03
2023-04-16T00:55:47.966Z,43.22
2023-04-16T00:58:16.123Z,48.00
2023-04-16T01:00:43.799Z,33.13
2023-04-16T01:03:11.658Z,44.97
2023-04-16T01:05:39.439Z,54.47
2023-04-16T01:08:07.265Z,39.45
2023-04-16T01:10:34.978Z,44.10
2023-04-16T01:13:02.656Z,34.28
2023-04-16T01:15:30.397Z,35.75
2023-04-16T01:17:58.098Z,43.30
2023-04-16T01:20:25.803Z,42.33
2023-04-16T01:22:53.466Z,38.30
2023-04-16T01:25:21.370Z,38.10
2023-04-16T01:27:54.950Z,39.13
2023-04-16T01:30:22.720Z,40.63
2023-04-16T01:32:50.437Z,37.97
2023-04-16T01:35:21.400Z,27.17
2023-04-16T01:37:51.634Z,45.58
2023-04-16T01:40:19.553Z,44.15
2023-04-16T01:42:47.276Z,36.80
2023-04-16T01:45:14.861Z,43.38
2023-04-16T01:47:42.699Z,47.13
2023-04-16T01:50:10.768Z,50.33
2023-04-16T01:52:38.553Z,44.27
2023-04-16T01:55:06.727Z,32.63
2023-04-16T01:57:34.421Z,38.00
2023-04-16T02:00:02.024Z,37.00
2023-04-16T02:02:29.939Z,36.72
2023-04-16T02:04:57.736Z,38.60
2023-04-16T02:07:25.962Z,34.10
2023-04-16T02:09:53.769Z,39.47
2023-04-16T02:12:21.592Z,37.83
2023-04-16T02:14:49.487Z,30.70
2023-04-16T02:17:17.918Z,36.97
2023-04-16T02:19:45.713Z,33.65
2023-04-16T02:22:13.394Z,39.33
2023-04-16T02:24:41.162Z,33.07
2023-04-16T02:27:08.979Z,37.60
2023-04-16T02:29:37.256Z,34.00
2023-04-16T02:32:05.106Z,38.60
2023-04-16T02:34:34.743Z,43.50
2023-04-16T02:37:02.557Z,33.22
2023-04-16T02:39:30.202Z,39.25
2023-04-16T02:41:59.573Z,43.50
2023-04-16T02:44:27.200Z,32.47
2023-04-16T02:46:54.881Z,41.00
2023-04-16T02:49:22.765Z,32.37
2023-04-16T02:51:50.623Z,34.17
2023-04-16T02:54:18.269Z,32.65
2023-04-16T02:56:46.037Z,38.57
2023-04-16T02:59:13.824Z,30.98
2023-04-16T03:01:41.488Z,35.22
2023-04-16T03:04:09.443Z,45.33
2023-04-16T03:06:37.208Z,27.13
2023-04-16T03:09:06.830Z,28.13
2023-04-16T03:11:34.413Z,23.10
2023-04-16T03:14:03.543Z,38.90
2023-04-16T03:16:31.634Z,25.15
2023-04-16T03:18:59.468Z,31.35
2023-04-16T03:21:28.099Z,31.97
2023-04-16T03:23:56.255Z,32.45
2023-04-16T03:26:23.987Z,38.03
2023-04-16T03:28:51.650Z,26.67
2023-04-16T03:31:19.383Z,25.97
2023-04-16T03:33:47.052Z,29.80
2023-04-16T03:36:14.731Z,25.30
2023-04-16T03:38:42.407Z,33.57
2023-04-16T03:41:10.131Z,24.50
2023-04-16T03:43:37.811Z,39.72
2023-04-16T03:46:05.668Z,36.07
2023-04-16T03:48:33.656Z,33.28
2023-04-16T03:51:01.283Z,25.27
2023-04-16T03:53:28.961Z,27.67
2023-04-16T03:55:56.578Z,31.70
2023-04-16T03:58:24.371Z,21.60
2023-04-16T04:00:54.257Z,29.05
2023-04-16T04:03:22.182Z,36.30
2023-04-16T04:05:50.656Z,22.98
2023-04-16T04:08:18.286Z,32.30
2023-04-16T04:10:46.180Z,24.77
2023-04-16T04:13:13.950Z,22.50
2023-04-16T04:15:41.670Z,28.02
2023-04-16T04:18:09.422Z,26.58
2023-04-16T04:20:40.220Z,31.17
2023-04-16T04:23:07.847Z,27.05
2023-04-16T04:25:36.103Z,33.03
2023-04-16T04:28:03.826Z,24.30
2023-04-16T04:30:31.511Z,32.80
2023-04-16T04:32:59.232Z,31.98
2023-04-16T04:35:26.966Z,31.97
2023-04-16T04:37:54.742Z,27.52
2023-04-16T04:40:22.382Z,20.95
2023-04-16T04:42:50.083Z,18.98
2023-04-16T04:45:17.795Z,24.80
2023-04-16T04:47:45.713Z,20.30
2023-04-16T04:50:13.603Z,24.88
2023-04-16T04:52:41.311Z,21.90
2023-04-16T04:55:09.059Z,20.70
2023-04-16T04:57:36.797Z,33.95
2023-04-16T05:00:04.529Z,16.70
2023-04-16T05:02:32.315Z,16.60
2023-04-16T05:05:00.098Z,26.45
2023-04-16T05:07:27.935Z,24.08
2023-04-16T05:09:55.649Z,20.40
2023-04-16T05:12:23.309Z,21.25
2023-04-16T05:14:51.012Z,29.15
2023-04-16T05:17:18.766Z,23.63
2023-04-16T05:19:46.545Z,27.00
2023-04-16T05:22:14.295Z,15.82
2023-04-16T05:24:41.905Z,24.40
2023-04-16T05:27:09.855Z,18.30
2023-04-16T05:29:37.505Z,22.20
2023-04-16T05:32:05.195Z,23.70
2023-04-16T05:34:32.832Z,37.53
2023-04-16T05:37:01.401Z,21.35
2023-04-16T05:39:28.993Z,20.73
2023-04-16T05:41:56.682Z,30.90
2023-04-16T05:44:24.356Z,28.60
2023-04-16T05:46:52.837Z,37.25
2023-04-16T05:49:21.580Z,34.57
2023-04-16T05:51:50.871Z,21.13
2023-04-16T05:54:18.827Z,35.38
2023-04-16T05:56:46.455Z,40.72
2023-04-16T05:59:14.223Z,28.80
2023-04-16T06:01:42.095Z,31.27
2023-04-16T06:04:09.882Z,29.58
2023-04-16T06:06:37.706Z,38.73
2023-04-16T06:09:06.907Z,31.42
2023-04-16T06:11:36.360Z,36.78
2023-04-16T06:14:04.528Z,29.83
2023-04-16T06:16:32.307Z,55.25
2023-04-16T06:19:00.049Z,34.53
2023-04-16T06:21:28.316Z,36.50
2023-04-16T06:23:56.316Z,31.27
2023-04-16T06:26:25.001Z,25.52
2023-04-16T06:28:52.706Z,39.70
2023-04-16T06:31:20.920Z,36.93
2023-04-16T06:33:48.516Z,29.95
2023-04-16T06:36:17.582Z,36.72
2023-04-16T06:38:45.266Z,33.13
2023-04-16T06:41:13.930Z,34.10
2023-04-16T06:43:41.668Z,42.10
2023-04-16T06:46:09.429Z,40.38
2023-04-16T06:48:37.278Z,29.73
2023-04-16T06:51:05.111Z,45.10
2023-04-16T06:53:33.204Z,44.08
2023-04-16T06:56:00.839Z,23.97
2023-04-16T06:58:28.786Z,26.85
2023-04-16T07:00:56.453Z,30.83
2023-04-16T07:03:24.379Z,34.43
2023-04-16T07:05:52.298Z,37.30
2023-04-16T07:08:20.051Z,28.30
2023-04-16T07:10:47.708Z,34.35
2023-04-16T07:13:15.466Z,34.97
2023-04-16T07:15:43.116Z,38.25
2023-04-16T07:18:10.842Z,29.92
2023-04-16T07:20:38.678Z,28.13
2023-04-16T07:23:06.308Z,33.40
2023-04-16T07:25:33.957Z,24.83
2023-04-16T07:28:01.732Z,30.83
2023-04-16T07:30:34.328Z,37.28
2023-04-16T07:33:03.397Z,18.13
2023-04-16T07:35:31.402Z,34.97
2023-04-16T07:37:59.277Z,25.23
2023-04-16T07:40:26.933Z,33.17
2023-04-16T07:42:54.836Z,31.92
2023-04-16T07:45:22.396Z,28.17
2023-04-16T07:47:50.287Z,39.03
2023-04-16T07:50:19.772Z,33.88
2023-04-16T07:52:48.104Z,26.53
2023-04-16T07:55:15.929Z,31.95
2023-04-16T07:57:43.652Z,35.38
2023-04-16T08:00:11.578Z,29.17
2023-04-16T08:02:39.493Z,35.93
2023-04-16T08:05:07.465Z,28.85
2023-04-16T08:07:35.270Z,30.52
2023-04-16T08:10:03.673Z,25.27
2023-04-16T08:12:31.402Z,27.55
2023-04-16T08:14:59.198Z,22.05
2023-04-16T08:17:28.798Z,26.07
2023-04-16T08:19:56.619Z,24.88
2023-04-16T08:22:24.449Z,30.85
2023-04-16T08:24:52.251Z,27.45
2023-04-16T08:27:20.452Z,34.30
2023-04-16T08:29:48.586Z,35.95
2023-04-16T08:32:16.314Z,26.00
2023-04-16T08:34:44.010Z,36.63
2023-04-16T08:37:11.829Z,29.08
2023-04-16T08:39:39.558Z,29.38
2023-04-16T08:42:07.337Z,22.23
2023-04-16T08:44:35.499Z,31.17
2023-04-16T08:47:03.279Z,27.42
2023-04-16T08:49:30.978Z,26.73
2023-04-16T08:51:58.675Z,24.47
2023-04-16T08:54:32.522Z,29.27
2023-04-16T08:57:00.362Z,27.83
2023-04-16T08:59:27.973Z,33.97
2023-04-16T09:01:59.748Z,28.98
2023-04-16T09:04:30.852Z,23.48
2023-04-16T09:06:59.180Z,31.27
2023-04-16T09:09:27.155Z,24.27
2023-04-16T09:11:54.954Z,30.45
2023-04-16T09:14:22.680Z,28.13
2023-04-16T09:16:51.596Z,29.13
2023-04-16T09:19:19.304Z,40.05
2023-04-16T09:21:47.283Z,33.72
2023-04-16T09:24:14.935Z,34.77
2023-04-16T09:26:44.241Z,25.13
2023-04-16T09:29:12.077Z,27.88
2023-04-16T09:31:41.474Z,25.53
2023-04-16T09:34:09.593Z,22.08
2023-04-16T09:36:37.406Z,25.67
2023-04-16T09:39:08.308Z,23.83
2023-04-16T09:41:38.358Z,24.73
2023-04-16T09:44:06.225Z,28.20
2023-04-16T09:46:37.374Z,20.77
2023-04-16T09:49:13.524Z,25.50
2023-04-16T09:51:44.506Z,27.48
2023-04-16T09:54:12.289Z,24.10
2023-04-16T09:56:43.431Z,26.60
2023-04-16T09:59:20.633Z,25.98
2023-04-16T10:01:49.849Z,24.52
2023-04-16T10:04:17.945Z,23.52
2023-04-16T10:06:48.605Z,27.77
2023-04-16T10:09:16.344Z,30.02
2023-04-16T10:11:43.980Z,25.35
2023-04-16T10:14:11.647Z,22.70
2023-04-16T10:16:41.221Z,22.35
2023-04-16T10:19:09.350Z,25.02
2023-04-16T10:21:37.344Z,23.90
2023-04-16T10:24:05.397Z,34.15
2023-04-16T10:26:33.116Z,21.80
2023-04-16T10:29:00.815Z,29.50
2023-04-16T10:31:28.757Z,32.37
2023-04-16T10:33:56.445Z,22.60
2023-04-16T10:36:24.685Z,28.27
2023-04-16T10:38:53.096Z,26.70
2023-04-16T10:41:21.230Z,28.02
2023-04-16T10:43:49.403Z,33.35
2023-04-16T10:46:27.030Z,28.80
2023-04-16T10:48:55.189Z,26.73
2023-04-16T10:51:32.665Z,27.00
2023-04-16T10:54:23.641Z,28.48
2023-04-16T10:56:51.760Z,27.13
2023-04-16T10:59:20.735Z,28.08
2023-04-16T11:01:49.384Z,29.02
2023-04-16T11:04:23.347Z,34.00
2023-04-16T11:07:09.589Z,27.88
2023-04-16T11:09:49.269Z,26.58
2023-04-16T11:12:18.865Z,21.23
2023-04-16T11:14:55.496Z,31.05
2023-04-16T11:17:23.505Z,25.17
2023-04-16T11:19:51.207Z,23.58
2023-04-16T11:22:21.489Z,24.50
2023-04-16T11:24:49.494Z,24.85
2023-04-16T11:27:17.359Z,29.85
2023-04-16T11:29:47.436Z,23.77
2023-04-16T11:32:22.271Z,25.23
2023-04-16T11:34:50.001Z,27.80
2023-04-16T11:37:20.873Z,20.58
2023-04-16T11:39:52.316Z,25.65
2023-04-16T11:42:21.398Z,27.73
2023-04-16T11:44:53.487Z,23.10
2023-04-16T11:47:21.562Z,25.87
2023-04-16T11:49:49.390Z,26.83
2023-04-16T11:52:29.932Z,24.40
2023-04-16T11:54:58.045Z,22.60
2023-04-16T11:57:29.116Z,20.88
2023-04-16T12:00:02.165Z,27.60
2023-04-16T12:02:36.917Z,24.23
2023-04-16T12:05:07.138Z,19.00
2023-04-16T12:07:47.011Z,28.98
2023-04-16T12:10:14.730Z,17.80
2023-04-16T12:12:42.591Z,23.77
2023-04-16T12:15:10.473Z,26.55
2023-04-16T12:17:38.797Z,26.05
2023-04-16T12:20:10.276Z,28.03
2023-04-16T12:22:38.589Z,24.48
2023-04-16T12:25:11.789Z,25.85
2023-04-16T12:27:43.484Z,23.48
2023-04-16T12:30:11.687Z,26.15
2023-04-16T12:32:39.618Z,23.55
2023-04-16T12:35:09.467Z,23.63
2023-04-16T12:37:37.787Z,21.63
2023-04-16T12:40:09.580Z,26.90
2023-04-16T12:42:37.295Z,27.65
2023-04-16T12:45:05.334Z,24.70
2023-04-16T12:47:33.193Z,21.77
2023-04-16T12:50:00.962Z,17.35
2023-04-16T12:52:28.608Z,21.33
2023-04-16T12:54:56.373Z,20.88
2023-04-16T12:57:28.824Z,21.85
2023-04-16T12:59:59.605Z,20.52
2023-04-16T13:02:27.691Z,27.40
2023-04-16T13:04:55.652Z,22.08
2023-04-16T13:07:24.368Z,13.77
2023-04-16T13:09:52.154Z,16.73
2023-04-16T13:12:19.961Z,24.85
2023-04-16T13:14:48.446Z,19.83
2023-04-16T13:17:16.353Z,30.02
2023-04-16T13:19:43.965Z,21.42
2023-04-16T13:22:11.694Z,18.20
2023-04-16T13:24:39.384Z,25.52
2023-04-16T13:27:08.637Z,16.43
2023-04-16T13:29:36.856Z,20.42
2023-04-16T13:32:04.775Z,20.45
2023-04-16T13:34:33.803Z,18.83
2023-04-16T13:37:01.605Z,25.83
2023-04-16T13:39:29.434Z,21.67
2023-04-16T13:41:57.048Z,23.43
2023-04-16T13:44:24.770Z,27.13
2023-04-16T13:46:54.065Z,18.30
2023-04-16T13:49:22.783Z,21.10
2023-04-16T13:51:50.700Z,21.20
2023-04-16T13:54:18.455Z,21.33
2023-04-16T13:56:46.225Z,21.08
2023-04-16T13:59:15.787Z,20.67
2023-04-16T14:01:43.679Z,20.75
2023-04-16T14:04:11.319Z,15.93
2023-04-16T14:06:39.045Z,22.02
2023-04-16T14:09:06.969Z,17.77
2023-04-16T14:11:34.732Z,21.15
2023-04-16T14:14:02.744Z,20.50
2023-04-16T14:16:30.659Z,27.73
2023-04-16T14:18:58.302Z,23.42
2023-04-16T14:21:27.173Z,22.83
2023-04-16T14:23:54.861Z,18.10
2023-04-16T14:26:22.634Z,23.50
2023-04-16T14:28:50.508Z,20.90
2023-04-16T14:31:18.358Z,17.67
2023-04-16T14:33:46.837Z,22.50
2023-04-16T14:36:15.841Z,19.52
2023-04-16T14:38:43.606Z,26.58
2023-04-16T14:41:12.645Z,15.07
2023-04-16T14:43:41.543Z,24.35
2023-04-16T14:46:09.372Z,17.23
2023-04-16T14:48:37.390Z,21.33
2023-04-16T14:51:06.282Z,20.95
2023-04-16T14:53:34.596Z,19.77
2023-04-16T14:56:02.422Z,21.38
2023-04-16T14:58:30.172Z,23.80
2023-04-16T15:00:58.672Z,20.27
2023-04-16T15:03:26.819Z,23.67
2023-04-16T15:05:57.696Z,21.40
2023-04-16T15:08:25.600Z,25.85
2023-04-16T15:10:53.356Z,21.08
2023-04-16T15:13:21.279Z,20.17
2023-04-16T15:15:49.168Z,17.33
2023-04-16T15:18:16.963Z,17.80
2023-04-16T15:20:44.570Z,17.97
2023-04-16T15:23:12.315Z,19.52
2023-04-16T15:25:39.963Z,17.20
2023-04-16T15:28:07.707Z,15.63
2023-04-16T15:30:35.516Z,24.30
2023-04-16T15:33:03.306Z,19.30
2023-04-16T15:35:30.978Z,20.10
2023-04-16T15:37:58.852Z,18.57
2023-04-16T15:40:26.587Z,21.95
2023-04-16T15:42:56.118Z,16.38
2023-04-16T15:45:24.169Z,19.40
2023-04-16T15:47:51.835Z,19.40
2023-04-16T15:50:20.088Z,19.00
2023-04-16T15:52:47.994Z,18.98
2023-04-16T15:55:15.831Z,17.37
2023-04-16T15:57:43.515Z,21.05
2023-04-16T16:00:17.360Z,18.00
2023-04-16T16:02:45.614Z,16.70
2023-04-16T16:05:16.538Z,14.80
2023-04-16T16:07:44.227Z,14.73
2023-04-16T16:10:13.303Z,14.17
2023-04-16T16:12:41.444Z,15.88
2023-04-16T16:15:11.303Z,16.60
2023-04-16T16:17:40.694Z,14.18
2023-04-16T16:20:12.917Z,17.60
2023-04-16T16:22:41.998Z,16.42
2023-04-16T16:25:10.327Z,13.45
2023-04-16T16:27:38.126Z,15.63
2023-04-16T16:30:08.440Z,15.52
2023-04-16T16:32:36.755Z,19.05
2023-04-16T16:35:04.537Z,15.50
2023-04-16T16:37:32.372Z,15.10
2023-04-16T16:40:00.316Z,16.73
2023-04-16T16:42:28.151Z,16.67
2023-04-16T16:44:57.464Z,15.47
2023-04-16T16:47:25.638Z,15.15
2023-04-16T16:49:54.891Z,16.42
2023-04-16T16:52:26.287Z,14.90
2023-04-16T16:54:54.701Z,13.73
2023-04-16T16:57:22.393Z,14.52
2023-04-16T16:59:51.176Z,16.87
2023-04-16T17:02:19.225Z,12.77
2023-04-16T17:04:47.042Z,12.15
2023-04-16T17:07:14.885Z,16.23
2023-04-16T17:09:42.573Z,19.40
2023-04-16T17:12:10.338Z,15.35
2023-04-16T17:14:38.128Z,16.70
2023-04-16T17:17:05.990Z,19.30
2023-04-16T17:19:33.657Z,17.27
2023-04-16T17:22:01.389Z,17.38
2023-04-16T17:24:29.048Z,14.40
2023-04-16T17:26:58.673Z,17.13
2023-04-16T17:29:26.841Z,13.95
2023-04-16T17:31:54.597Z,12.38
2023-04-16T17:34:22.592Z,15.20
2023-04-16T17:36:50.757Z,14.85
2023-04-16T17:39:18.477Z,15.18
2023-04-16T17:41:46.211Z,16.47
2023-04-16T17:44:14.243Z,14.90
2023-04-16T17:46:42.158Z,14.48
2023-04-16T17:49:10.071Z,12.97
2023-04-16T17:51:37.727Z,15.30
2023-04-16T17:54:07.366Z,13.93
2023-04-16T17:56:34.998Z,13.70
2023-04-16T17:59:02.761Z,25.30
2023-04-16T18:01:31.941Z,12.18
2023-04-16T18:03:59.918Z,17.15
2023-04-16T18:06:28.403Z,15.50
2023-04-16T18:08:56.828Z,12.32
2023-04-16T18:11:24.614Z,12.88
2023-04-16T18:13:54.202Z,11.80
2023-04-16T18:16:22.835Z,12.30
2023-04-16T18:18:50.959Z,15.32
2023-04-16T18:21:18.617Z,15.40
2023-04-16T18:23:46.369Z,10.23
2023-04-16T18:26:17.781Z,14.73
2023-04-16T18:28:47.370Z,12.48
2023-04-16T18:31:15.078Z,12.77
2023-04-16T18:36:13.322Z,18.02
2023-04-16T18:38:52.964Z,13.57
2023-04-16T18:41:21.010Z,23.10
2023-04-16T18:43:48.814Z,15.52
2023-04-16T18:46:16.509Z,24.25
2023-04-16T18:48:47.355Z,12.43
2023-04-16T18:51:16.361Z,18.23
2023-04-16T18:53:45.875Z,13.55
2023-04-16T18:56:13.699Z,16.33
2023-04-16T18:58:41.527Z,15.88
2023-04-16T19:01:11.472Z,14.43
2023-04-16T19:03:39.414Z,16.50
2023-04-16T19:06:07.348Z,15.00
2023-04-16T19:08:35.248Z,19.25
2023-04-16T19:11:02.924Z,15.88
2023-04-16T19:13:30.690Z,16.60
2023-04-16T19:16:01.868Z,18.13
2023-04-16T19:18:29.622Z,19.02
2023-04-16T19:21:04.353Z,18.33
2023-04-16T19:23:32.095Z,20.60
2023-04-16T19:26:08.253Z,20.35
2023-04-16T19:28:35.982Z,17.67
2023-04-16T19:31:03.881Z,19.58
2023-04-16T19:33:31.601Z,20.60
2023-04-16T19:36:00.353Z,24.45
2023-04-16T19:38:28.361Z,19.10
2023-04-16T19:40:56.053Z,22.63
2023-04-16T19:43:23.685Z,19.33
2023-04-16T19:45:53.452Z,19.13
2023-04-16T19:48:24.708Z,18.63
2023-04-16T19:50:52.616Z,15.77
2023-04-16T19:53:21.197Z,16.10
2023-04-16T19:55:48.924Z,19.52
2023-04-16T19:58:16.904Z,22.42
2023-04-16T20:00:44.618Z,16.23
2023-04-16T20:03:12.292Z,18.07
2023-04-16T20:05:40.375Z,17.60
2023-04-16T20:08:08.018Z,20.45
2023-04-16T20:10:36.215Z,18.20
2023-04-16T20:13:05.058Z,18.98
2023-04-16T20:15:32.789Z,18.38
2023-04-16T20:18:00.605Z,19.03
2023-04-16T20:20:28.259Z,16.02
2023-04-16T20:22:56.117Z,14.93
2023-04-16T20:25:26.308Z,16.05
2023-04-16T20:27:54.072Z,14.23
2023-04-16T20:30:29.358Z,15.00
2023-04-16T20:32:57.240Z,19.25
2023-04-16T20:35:24.898Z,14.47
2023-04-16T20:37:52.701Z,14.57
2023-04-16T20:40:21.369Z,15.18
2023-04-16T20:42:51.030Z,16.50
2023-04-16T20:45:19.097Z,13.50
2023-04-16T20:47:46.913Z,18.30
2023-04-16T20:50:14.624Z,16.88
2023-04-16T20:52:42.597Z,15.00
2023-04-16T20:55:10.580Z,16.55
2023-04-16T20:57:38.316Z,18.90
2023-04-16T21:00:09.221Z,21.20
2023-04-16T21:02:37.267Z,20.05
2023-04-16T21:05:06.371Z,18.55
2023-04-16T21:07:33.997Z,22.13
2023-04-16T21:10:01.725Z,15.52
2023-04-16T21:12:29.498Z,17.85
2023-04-16T21:14:57.654Z,19.30
2023-04-16T21:17:25.446Z,15.97
2023-04-16T21:19:53.227Z,20.73
2023-04-16T21:22:21.942Z,17.40
2023-04-16T21:24:49.583Z,16.37
2023-04-16T21:27:17.300Z,16.33
2023-04-16T21:29:44.997Z,18.92
2023-04-16T21:32:12.706Z,17.47
2023-04-16T21:34:40.467Z,21.42
2023-04-16T21:37:08.499Z,19.00
2023-04-16T21:39:36.130Z,18.40
2023-04-16T21:42:03.922Z,17.73
2023-04-16T21:44:31.744Z,24.65
2023-04-16T21:46:59.744Z,18.95
2023-04-16T21:49:27.576Z,17.63
2023-04-16T21:51:59.297Z,16.52
2023-04-16T21:54:27.104Z,21.23
2023-04-16T21:56:54.741Z,21.57
2023-04-16T21:59:22.461Z,18.80
2023-04-16T22:01:50.352Z,18.98
2023-04-16T22:04:18.124Z,21.85
2023-04-16T22:06:46.350Z,22.97
2023-04-16T22:09:13.954Z,24.70
2023-04-16T22:11:41.604Z,22.27
2023-04-16T22:14:09.369Z,21.97
2023-04-16T22:16:37.102Z,24.30
2023-04-16T22:19:04.740Z,18.58
2023-04-16T22:21:32.517Z,21.90
2023-04-16T22:24:00.218Z,20.33
2023-04-16T22:26:27.901Z,21.02
2023-04-16T22:28:55.916Z,19.98
2023-04-16T22:31:23.495Z,19.20
2023-04-16T22:33:51.356Z,17.85
2023-04-16T22:36:18.968Z,19.67
2023-04-16T22:38:46.895Z,19.77
2023-04-16T22:41:14.523Z,18.55
2023-04-16T22:43:43.125Z,19.60
2023-04-16T22:46:10.867Z,19.80
2023-04-16T22:48:39.012Z,18.65
2023-04-16T22:51:07.478Z,20.02
2023-04-16T22:53:35.253Z,18.00
2023-04-16T22:56:06.328Z,18.00
2023-04-16T22:58:34.126Z,16.88
2023-04-16T23:01:01.965Z,16.17
2023-04-16T23:03:29.863Z,17.60
2023-04-16T23:05:57.655Z,16.15
2023-04-16T23:08:25.388Z,19.05
2023-04-16T23:10:53.130Z,19.37
2023-04-16T23:13:20.823Z,15.25
2023-04-16T23:15:48.610Z,15.35
2023-04-16T23:18:16.970Z,23.08
2023-04-16T23:20:44.587Z,17.27
2023-04-16T23:23:13.654Z,18.02
2023-04-16T23:25:42.169Z,23.55
2023-04-16T23:28:09.981Z,18.63
2023-04-16T23:30:37.625Z,21.10
2023-04-16T23:33:05.503Z,18.90
2023-04-16T23:35:33.197Z,19.33
2023-04-16T23:38:01.427Z,16.27
2023-04-16T23:40:29.066Z,24.27
2023-04-16T23:42:56.731Z,19.00
2023-04-16T23:45:24.583Z,19.73
2023-04-16T23:47:52.372Z,17.80
2023-04-16T23:50:20.152Z,18.70
2023-04-16T23:52:48.820Z,20.80
2023-04-16T23:55:16.861Z,21.13
2023-04-16T23:57:44.611Z,19.23
